createdAt,value
2022-10-06T00:00:39.539Z,15.40
2022-10-06T00:03:06.475Z,15.40
2022-10-06T00:05:33.379Z,15.40
2022-10-06T00:08:01.226Z,15.30
2022-10-06T00:10:28.274Z,15.30
2022-10-06T00:12:55.372Z,15.40
2022-10-06T00:15:29.534Z,15.30
2022-10-06T00:17:57.896Z,15.30
2022-10-06T00:20:26.387Z,15.30
2022-10-06T00:22:53.207Z,15.30
2022-10-06T00:25:22.877Z,15.30
2022-10-06T00:27:51.757Z,15.30
2022-10-06T00:30:29.202Z,15.30
2022-10-06T00:32:58.942Z,15.30
2022-10-06T00:35:27.770Z,15.30
2022-10-06T00:37:54.895Z,15.20
2022-10-06T00:40:22.476Z,15.30
2022-10-06T00:43:27.212Z,15.20
2022-10-06T00:45:54.208Z,15.20
2022-10-06T00:48:24.248Z,15.20
2022-10-06T00:50:58.010Z,15.20
2022-10-06T00:53:30.158Z,15.20
2022-10-06T00:55:57.386Z,15.20
2022-10-06T00:58:25.378Z,15.20
2022-10-06T01:00:56.176Z,15.10
2022-10-06T01:03:33.651Z,15.10
2022-10-06T01:06:02.176Z,15.20
2022-10-06T01:08:31.231Z,15.10
2022-10-06T01:10:58.909Z,15.10
2022-10-06T01:13:27.428Z,15.10
2022-10-06T01:15:57.150Z,15.10
2022-10-06T01:18:27.257Z,15.00
2022-10-06T01:21:24.236Z,15.00
2022-10-06T01:23:51.584Z,15.00
2022-10-06T01:26:21.504Z,15.00
2022-10-06T01:28:49.187Z,15.00
2022-10-06T01:31:16.513Z,15.00
2022-10-06T01:33:43.430Z,15.00
2022-10-06T01:36:10.217Z,15.00
2022-10-06T01:38:37.256Z,15.00
2022-10-06T01:41:04.103Z,15.00
2022-10-06T01:43:30.878Z,15.00
2022-10-06T01:45:58.720Z,15.00
2022-10-06T01:48:27.385Z,15.00
2022-10-06T01:50:55.290Z,15.00
2022-10-06T01:53:22.881Z,15.00
2022-10-06T01:55:49.785Z,15.00
2022-10-06T01:58:16.612Z,15.00
2022-10-06T02:00:43.501Z,15.00
2022-10-06T02:03:10.296Z,14.90
2022-10-06T02:05:37.108Z,14.90
2022-10-06T02:08:04.356Z,14.90
2022-10-06T02:10:31.384Z,14.90
2022-10-06T02:12:58.431Z,14.90
2022-10-06T02:15:26.956Z,14.90
2022-10-06T02:17:54.703Z,14.90
2022-10-06T02:20:21.589Z,15.00
2022-10-06T02:22:48.629Z,15.00
2022-10-06T02:25:17.219Z,14.90
2022-10-06T02:27:44.492Z,15.00
2022-10-06T02:30:11.914Z,15.00
2022-10-06T02:32:40.809Z,15.00
2022-10-06T02:35:08.734Z,15.00
2022-10-06T02:37:35.562Z,15.00
2022-10-06T02:40:02.498Z,15.00
2022-10-06T02:42:29.285Z,15.00
2022-10-06T02:44:59.437Z,15.00
2022-10-06T02:47:26.256Z,15.00
2022-10-06T02:49:53.049Z,15.00
2022-10-06T02:52:19.888Z,15.00
2022-10-06T02:54:47.133Z,15.00
2022-10-06T02:57:15.602Z,15.00
2022-10-06T02:59:43.074Z,15.00
2022-10-06T03:02:10.009Z,15.00
2022-10-06T03:04:36.949Z,15.00
2022-10-06T03:07:04.061Z,14.90
2022-10-06T03:09:31.021Z,15.00
2022-10-06T03:11:57.760Z,14.90
2022-10-06T03:14:24.850Z,14.90
2022-10-06T03:16:51.968Z,14.90
2022-10-06T03:19:18.796Z,14.90
2022-10-06T03:21:45.640Z,14.90
2022-10-06T03:24:12.729Z,15.00
2022-10-06T03:26:42.249Z,14.90
2022-10-06T03:29:11.800Z,14.90
2022-10-06T03:31:39.687Z,14.90
2022-10-06T03:34:08.104Z,14.90
2022-10-06T03:36:36.275Z,14.90
2022-10-06T03:39:05.489Z,14.90
2022-10-06T03:41:35.124Z,14.90
2022-10-06T03:44:02.681Z,14.90
2022-10-06T03:46:32.434Z,14.90
2022-10-06T03:49:00.619Z,14.90
2022-10-06T03:51:41.681Z,14.90
2022-10-06T03:54:10.868Z,14.90
2022-10-06T03:56:40.424Z,14.90
2022-10-06T03:59:10.906Z,14.90
2022-10-06T04:01:43.238Z,14.90
2022-10-06T04:04:10.895Z,14.90
2022-10-06T04:06:40.123Z,14.90
2022-10-06T04:09:13.993Z,14.80
2022-10-06T04:11:43.047Z,14.80
2022-10-06T04:14:13.041Z,14.80
2022-10-06T04:16:43.072Z,14.80
2022-10-06T04:19:12.284Z,14.80
2022-10-06T04:21:40.739Z,14.80
2022-10-06T04:24:08.749Z,14.80
2022-10-06T04:26:41.838Z,14.80
2022-10-06T04:29:08.592Z,14.80
2022-10-06T04:31:38.988Z,14.80
2022-10-06T04:34:07.117Z,14.80
2022-10-06T04:36:38.225Z,14.80
2022-10-06T04:39:06.640Z,14.80
2022-10-06T04:41:36.260Z,14.80
2022-10-06T04:44:04.430Z,14.70
2022-10-06T04:46:47.926Z,14.70
2022-10-06T04:49:19.961Z,14.70
2022-10-06T04:51:49.027Z,14.70
2022-10-06T04:54:16.087Z,14.70
2022-10-06T04:56:42.946Z,14.70
2022-10-06T04:59:09.907Z,14.70
2022-10-06T05:01:37.769Z,14.70
2022-10-06T05:04:06.122Z,14.70
2022-10-06T05:06:35.820Z,14.70
2022-10-06T05:09:05.828Z,14.70
2022-10-06T05:11:33.371Z,14.70
2022-10-06T05:14:00.749Z,14.70
2022-10-06T05:16:29.405Z,14.70
2022-10-06T05:18:56.843Z,14.70
2022-10-06T05:21:32.247Z,14.70
2022-10-06T05:23:59.718Z,14.70
2022-10-06T05:26:29.888Z,14.70
2022-10-06T05:28:57.229Z,14.70
2022-10-06T05:31:28.495Z,14.70
2022-10-06T05:33:56.394Z,14.70
2022-10-06T05:36:26.397Z,14.70
2022-10-06T05:38:53.575Z,14.70
2022-10-06T05:41:24.131Z,14.70
2022-10-06T05:43:51.656Z,14.80
2022-10-06T05:46:21.066Z,14.80
2022-10-06T05:48:49.494Z,14.80
2022-10-06T05:51:18.263Z,14.80
2022-10-06T05:53:45.929Z,14.80
2022-10-06T05:56:27.547Z,14.80
2022-10-06T05:58:56.014Z,14.80
2022-10-06T06:01:31.738Z,14.90
2022-10-06T06:04:04.037Z,14.90
2022-10-06T06:06:35.358Z,14.90
2022-10-06T06:09:17.006Z,15.00
2022-10-06T06:11:47.414Z,15.00
2022-10-06T06:14:45.115Z,15.00
2022-10-06T06:17:11.935Z,15.10
2022-10-06T06:19:38.737Z,15.10
2022-10-06T06:22:05.544Z,15.20
2022-10-06T06:24:32.344Z,15.20
2022-10-06T06:26:59.107Z,15.30
2022-10-06T06:29:25.932Z,15.30
2022-10-06T06:31:52.791Z,15.40
2022-10-06T06:34:19.657Z,15.40
2022-10-06T06:36:52.121Z,15.50
2022-10-06T06:39:20.026Z,15.50
2022-10-06T06:41:47.173Z,15.50
2022-10-06T06:44:14.629Z,15.60
2022-10-06T06:46:43.615Z,15.70
2022-10-06T06:49:12.076Z,15.80
2022-10-06T06:51:44.005Z,15.80
2022-10-06T06:54:12.983Z,15.90
2022-10-06T06:56:39.839Z,16.00
2022-10-06T06:59:11.953Z,16.10
2022-10-06T07:01:48.762Z,16.20
2022-10-06T07:04:17.628Z,16.20
2022-10-06T07:06:57.133Z,16.30
2022-10-06T07:09:26.077Z,16.40
2022-10-06T07:11:52.988Z,16.40
2022-10-06T07:14:22.538Z,16.50
2022-10-06T07:17:07.861Z,16.50
2022-10-06T07:19:57.541Z,16.60
2022-10-06T07:22:47.423Z,16.60
2022-10-06T07:25:27.016Z,16.60
2022-10-06T07:27:54.352Z,16.60
2022-10-06T07:30:23.916Z,16.70
2022-10-06T07:32:51.998Z,16.70
2022-10-06T07:35:20.437Z,16.70
2022-10-06T07:37:48.569Z,16.70
2022-10-06T07:40:16.196Z,16.80
2022-10-06T07:42:49.294Z,16.90
2022-10-06T07:45:41.672Z,16.90
2022-10-06T07:48:20.065Z,17.00
2022-10-06T07:50:49.392Z,17.00
2022-10-06T07:53:17.771Z,17.00
2022-10-06T07:55:46.661Z,17.00
2022-10-06T07:58:26.159Z,17.00
2022-10-06T08:00:53.209Z,17.00
2022-10-06T08:03:21.165Z,17.10
2022-10-06T08:05:58.509Z,17.10
2022-10-06T08:08:25.429Z,17.10
2022-10-06T08:11:00.382Z,17.10
2022-10-06T08:13:28.401Z,17.10
2022-10-06T08:15:56.602Z,17.10
2022-10-06T08:18:45.360Z,17.10
2022-10-06T08:21:17.651Z,17.20
2022-10-06T08:23:46.670Z,17.30
2022-10-06T08:26:15.057Z,17.30
2022-10-06T08:28:45.872Z,17.30
2022-10-06T08:31:12.973Z,17.40
2022-10-06T08:33:42.565Z,17.50
2022-10-06T08:36:19.070Z,17.50
2022-10-06T08:38:50.538Z,17.50
2022-10-06T08:41:22.272Z,17.50
2022-10-06T08:44:18.097Z,17.50
2022-10-06T08:47:01.302Z,17.50
2022-10-06T08:49:38.488Z,17.50
2022-10-06T08:52:17.263Z,17.60
2022-10-06T08:54:47.142Z,17.60
2022-10-06T08:57:37.296Z,17.60
2022-10-06T09:00:18.046Z,17.60
2022-10-06T09:02:50.220Z,17.70
2022-10-06T09:05:25.324Z,17.70
2022-10-06T09:08:13.921Z,17.80
2022-10-06T09:10:49.617Z,17.80
2022-10-06T09:13:40.270Z,17.90
2022-10-06T09:16:13.528Z,18.00
2022-10-06T09:19:06.850Z,18.00
2022-10-06T09:21:50.053Z,18.20
2022-10-06T09:24:40.487Z,18.30
2022-10-06T09:27:22.267Z,18.40
2022-10-06T09:29:49.951Z,18.50
2022-10-06T09:32:22.218Z,18.60
2022-10-06T09:34:52.054Z,18.70
2022-10-06T09:37:19.393Z,18.80
2022-10-06T09:39:50.311Z,18.80
2022-10-06T09:42:35.603Z,18.90
2022-10-06T09:45:04.948Z,18.90
2022-10-06T09:47:41.799Z,19.00
2022-10-06T09:50:25.181Z,19.00
2022-10-06T09:52:58.203Z,19.00
2022-10-06T09:55:52.152Z,19.10
2022-10-06T09:58:21.958Z,19.10
2022-10-06T10:01:02.926Z,19.10
2022-10-06T10:04:02.083Z,19.10
2022-10-06T10:06:34.552Z,19.10
2022-10-06T10:09:21.921Z,19.20
2022-10-06T10:12:24.519Z,19.30
2022-10-06T10:15:00.359Z,19.40
2022-10-06T10:17:32.349Z,19.40
2022-10-06T10:20:01.383Z,19.40
2022-10-06T10:22:39.876Z,19.50
2022-10-06T10:25:06.819Z,19.60
2022-10-06T10:27:40.161Z,19.60
2022-10-06T10:30:11.464Z,19.60
2022-10-06T10:32:51.531Z,19.60
2022-10-06T10:35:30.324Z,19.70
2022-10-06T10:38:15.799Z,19.60
2022-10-06T10:40:49.210Z,19.70
2022-10-06T10:43:32.546Z,19.70
2022-10-06T10:46:19.576Z,19.70
2022-10-06T10:48:49.831Z,19.80
2022-10-06T10:51:41.231Z,19.80
2022-10-06T10:54:21.464Z,19.80
2022-10-06T10:56:50.895Z,19.90
2022-10-06T10:59:43.841Z,19.90
2022-10-06T11:02:20.688Z,19.80
2022-10-06T11:05:10.350Z,19.80
2022-10-06T11:07:43.882Z,19.80
2022-10-06T11:10:21.886Z,19.80
2022-10-06T11:13:01.402Z,19.80
2022-10-06T11:15:49.153Z,19.80
2022-10-06T11:18:26.106Z,19.70
2022-10-06T11:21:01.283Z,19.80
2022-10-06T11:23:42.967Z,19.80
2022-10-06T11:26:35.938Z,19.80
2022-10-06T11:29:20.752Z,19.80
2022-10-06T11:31:51.512Z,19.80
2022-10-06T11:34:18.431Z,19.90
2022-10-06T11:36:55.142Z,19.90
2022-10-06T11:39:33.048Z,20.00
2022-10-06T11:42:21.555Z,20.00
2022-10-06T11:44:56.585Z,20.10
2022-10-06T11:47:37.633Z,20.10
2022-10-06T11:50:33.502Z,20.10
2022-10-06T11:53:00.905Z,20.10
2022-10-06T11:55:29.098Z,20.10
2022-10-06T11:58:23.417Z,20.10
2022-10-06T12:00:54.699Z,20.20
2022-10-06T12:03:33.368Z,20.20
2022-10-06T12:06:00.968Z,20.30
2022-10-06T12:08:39.533Z,20.30
2022-10-06T12:11:42.312Z,20.30
2022-10-06T12:16:32.301Z,20.30
2022-10-06T12:17:40.571Z,20.40
2022-10-06T12:20:19.408Z,20.30
2022-10-06T12:23:00.737Z,20.40
2022-10-06T12:25:48.869Z,20.40
2022-10-06T12:28:22.735Z,20.40
2022-10-06T12:31:15.810Z,20.50
2022-10-06T12:33:45.786Z,20.50
2022-10-06T12:36:19.028Z,20.50
2022-10-06T12:39:05.121Z,20.60
2022-10-06T12:41:57.476Z,20.60
2022-10-06T12:44:42.536Z,20.60
2022-10-06T12:47:38.472Z,20.60
2022-10-06T12:50:13.407Z,20.60
2022-10-06T12:52:51.630Z,20.70
2022-10-06T12:55:27.728Z,20.70
2022-10-06T12:57:54.616Z,20.70
2022-10-06T13:00:33.175Z,20.70
2022-10-06T13:03:02.664Z,20.80
2022-10-06T13:05:30.272Z,20.80
2022-10-06T13:08:01.879Z,20.70
2022-10-06T13:10:29.984Z,20.70
2022-10-06T13:12:58.167Z,20.70
2022-10-06T13:18:13.055Z,20.60
2022-10-06T13:20:50.686Z,20.60
2022-10-06T13:23:28.014Z,20.60
2022-10-06T13:26:05.558Z,20.60
2022-10-06T13:28:46.198Z,20.70
2022-10-06T13:31:28.034Z,20.70
2022-10-06T13:34:02.810Z,20.60
2022-10-06T13:36:33.302Z,20.60
2022-10-06T13:39:00.731Z,20.60
2022-10-06T13:41:34.932Z,20.60
2022-10-06T13:44:18.810Z,20.60
2022-10-06T13:46:52.821Z,20.60
2022-10-06T13:49:30.345Z,20.70
2022-10-06T13:52:08.757Z,20.70
2022-10-06T13:54:56.794Z,20.80
2022-10-06T13:57:47.475Z,20.80
2022-10-06T14:00:24.732Z,20.90
2022-10-06T14:02:55.257Z,20.90
2022-10-06T14:05:36.893Z,20.80
2022-10-06T14:08:15.332Z,20.90
2022-10-06T14:10:47.234Z,21.00
2022-10-06T14:13:18.842Z,21.00
2022-10-06T14:16:05.399Z,21.00
2022-10-06T14:18:43.932Z,20.90
2022-10-06T14:21:45.710Z,20.90
2022-10-06T14:24:15.607Z,20.90
2022-10-06T14:26:43.949Z,20.90
2022-10-06T14:29:13.569Z,20.80
2022-10-06T14:31:40.449Z,20.80
2022-10-06T14:34:14.382Z,20.80
2022-10-06T14:36:43.088Z,20.70
2022-10-06T14:39:13.098Z,20.70
2022-10-06T14:41:39.952Z,20.70
2022-10-06T14:44:09.977Z,20.70
2022-10-06T14:46:38.061Z,20.60
2022-10-06T14:49:07.551Z,20.60
2022-10-06T14:51:37.008Z,20.60
2022-10-06T14:54:05.422Z,20.50
2022-10-06T14:56:34.743Z,20.50
2022-10-06T14:59:05.489Z,20.40
2022-10-06T15:01:34.922Z,20.40
2022-10-06T15:04:04.981Z,20.40
2022-10-06T15:06:50.807Z,20.40
2022-10-06T15:09:17.639Z,20.40
2022-10-06T15:11:45.350Z,20.30
2022-10-06T15:14:12.143Z,20.20
2022-10-06T15:16:42.244Z,20.20
2022-10-06T15:19:10.980Z,20.20
2022-10-06T15:21:45.222Z,20.20
2022-10-06T15:24:16.186Z,20.20
2022-10-06T15:27:02.337Z,20.20
2022-10-06T15:29:29.970Z,20.10
2022-10-06T15:31:58.686Z,20.10
2022-10-06T15:34:27.923Z,20.10
2022-10-06T15:36:56.340Z,20.10
2022-10-06T15:39:25.786Z,20.10
2022-10-06T15:41:53.089Z,20.00
2022-10-06T15:44:20.449Z,20.00
2022-10-06T15:46:55.264Z,20.00
2022-10-06T15:49:27.329Z,19.90
2022-10-06T15:51:56.825Z,19.90
2022-10-06T15:54:29.442Z,19.90
2022-10-06T15:56:58.373Z,19.90
2022-10-06T15:59:27.023Z,19.80
2022-10-06T16:02:17.057Z,19.80
2022-10-06T16:04:55.615Z,19.70
2022-10-06T16:07:22.632Z,19.70
2022-10-06T16:09:51.552Z,19.60
2022-10-06T16:12:21.437Z,19.60
2022-10-06T16:14:48.284Z,19.50
2022-10-06T16:17:15.319Z,19.50
2022-10-06T16:19:42.440Z,19.40
2022-10-06T16:22:14.375Z,19.30
2022-10-06T16:24:41.277Z,19.30
2022-10-06T16:27:12.822Z,19.20
2022-10-06T16:29:39.641Z,19.20
2022-10-06T16:32:09.166Z,19.20
2022-10-06T16:34:35.977Z,19.10
2022-10-06T16:37:02.795Z,19.10
2022-10-06T16:39:29.642Z,19.10
2022-10-06T16:41:56.375Z,19.00
2022-10-06T16:44:23.323Z,19.00
2022-10-06T16:46:50.150Z,19.00
2022-10-06T16:49:16.999Z,18.90
2022-10-06T16:51:46.167Z,18.90
2022-10-06T16:54:14.628Z,18.80
2022-10-06T16:56:44.744Z,18.80
2022-10-06T16:59:13.033Z,18.70
2022-10-06T17:01:40.386Z,18.60
2022-10-06T17:04:09.849Z,18.50
2022-10-06T17:06:39.365Z,18.50
2022-10-06T17:09:14.506Z,18.40
2022-10-06T17:11:43.414Z,18.30
2022-10-06T17:14:10.734Z,18.20
2022-10-06T17:16:40.892Z,18.10
2022-10-06T17:19:08.180Z,18.10
2022-10-06T17:21:55.695Z,18.00
2022-10-06T17:24:23.106Z,17.90
2022-10-06T17:26:50.410Z,17.80
2022-10-06T17:29:22.161Z,17.80
2022-10-06T17:31:51.740Z,17.70
2022-10-06T17:34:21.842Z,17.70
2022-10-06T17:36:51.795Z,17.60
2022-10-06T17:39:23.026Z,17.60
2022-10-06T17:41:52.574Z,17.50
2022-10-06T17:44:23.743Z,17.50
2022-10-06T17:46:56.940Z,17.40
2022-10-06T17:49:24.878Z,17.30
2022-10-06T17:51:53.570Z,17.30
2022-10-06T17:54:23.345Z,17.20
2022-10-06T17:56:52.504Z,17.20
2022-10-06T17:59:25.118Z,17.20
2022-10-06T18:01:56.623Z,17.10
2022-10-06T18:04:24.315Z,17.10
2022-10-06T18:06:52.995Z,17.00
2022-10-06T18:09:20.551Z,17.00
2022-10-06T18:11:55.727Z,17.00
2022-10-06T18:14:25.805Z,16.90
2022-10-06T18:16:56.909Z,16.80
2022-10-06T18:19:35.457Z,16.80
2022-10-06T18:22:10.123Z,16.70
2022-10-06T18:24:37.950Z,16.70
2022-10-06T18:27:06.401Z,16.70
2022-10-06T18:29:35.585Z,16.60
2022-10-06T18:37:37.087Z,16.50
2022-10-06T18:40:07.019Z,16.50
2022-10-06T18:42:33.941Z,16.40
2022-10-06T18:45:19.360Z,16.40
2022-10-06T18:48:04.544Z,16.40
2022-10-06T18:50:32.377Z,16.30
2022-10-06T18:52:59.193Z,16.30
2022-10-06T18:55:27.863Z,16.30
2022-10-06T18:57:54.752Z,16.30
2022-10-06T19:00:22.040Z,16.30
2022-10-06T19:02:50.574Z,16.20
2022-10-06T19:05:17.588Z,16.20
2022-10-06T19:07:45.240Z,16.20
2022-10-06T19:10:12.269Z,16.10
2022-10-06T19:12:39.104Z,16.10
2022-10-06T19:15:06.408Z,16.00
2022-10-06T19:17:33.915Z,16.00
2022-10-06T19:20:00.684Z,16.00
2022-10-06T19:22:27.557Z,16.00
2022-10-06T19:24:54.336Z,16.00
2022-10-06T19:27:26.300Z,15.90
2022-10-06T19:29:56.425Z,15.90
2022-10-06T19:32:26.181Z,15.90
2022-10-06T19:34:54.890Z,15.90
2022-10-06T19:37:21.739Z,15.80
2022-10-06T19:39:50.243Z,15.80
2022-10-06T19:42:37.261Z,15.70
2022-10-06T19:45:06.413Z,15.70
2022-10-06T19:47:33.525Z,15.60
2022-10-06T19:50:04.754Z,15.60
2022-10-06T19:52:34.981Z,15.60
2022-10-06T19:55:01.876Z,15.60
2022-10-06T19:57:29.508Z,15.60
2022-10-06T19:59:56.429Z,15.60
2022-10-06T20:02:23.430Z,15.50
2022-10-06T20:04:50.640Z,15.50
2022-10-06T20:07:21.593Z,15.40
2022-10-06T20:09:49.045Z,15.40
2022-10-06T20:12:20.888Z,15.40
2022-10-06T20:14:50.584Z,15.40
2022-10-06T20:17:17.617Z,15.40
2022-10-06T20:19:46.520Z,15.40
2022-10-06T20:22:13.663Z,15.40
2022-10-06T20:24:40.429Z,15.30
2022-10-06T20:27:07.255Z,15.30
2022-10-06T20:29:34.703Z,15.30
2022-10-06T20:32:01.546Z,15.20
2022-10-06T20:34:32.034Z,15.30
2022-10-06T20:37:00.168Z,15.30
2022-10-06T20:39:45.544Z,15.30
2022-10-06T20:42:15.158Z,15.30
2022-10-06T20:44:43.152Z,15.20
2022-10-06T20:47:11.355Z,15.20
2022-10-06T20:49:38.239Z,15.20
2022-10-06T20:52:06.060Z,15.10
2022-10-06T20:54:35.692Z,15.10
2022-10-06T20:57:04.797Z,15.10
2022-10-06T20:59:33.220Z,15.00
2022-10-06T21:02:00.312Z,15.00
2022-10-06T21:04:27.853Z,15.00
2022-10-06T21:06:54.900Z,15.00
2022-10-06T21:09:22.814Z,14.90
2022-10-06T21:11:50.090Z,14.90
2022-10-06T21:14:17.744Z,14.80
2022-10-06T21:16:46.635Z,14.80
2022-10-06T21:19:16.231Z,14.70
2022-10-06T21:21:45.953Z,14.70
2022-10-06T21:24:13.236Z,14.70
2022-10-06T21:26:42.472Z,14.70
2022-10-06T21:29:16.213Z,14.60
2022-10-06T21:31:44.535Z,14.60
2022-10-06T21:34:11.825Z,14.60
2022-10-06T21:36:39.044Z,14.50
2022-10-06T21:39:06.519Z,14.50
2022-10-06T21:41:38.883Z,14.50
2022-10-06T21:44:14.499Z,14.40
2022-10-06T21:46:54.417Z,14.40
2022-10-06T21:49:23.501Z,14.30
2022-10-06T21:51:55.421Z,14.30
2022-10-06T21:54:23.431Z,14.20
2022-10-06T21:56:50.446Z,14.20
2022-10-06T21:59:17.809Z,14.20
2022-10-06T22:01:46.804Z,14.20
2022-10-06T22:04:14.989Z,14.20
2022-10-06T22:06:43.339Z,14.20
2022-10-06T22:09:14.184Z,14.20
2022-10-06T22:11:41.109Z,14.20
2022-10-06T22:14:13.240Z,14.20
2022-10-06T22:16:40.699Z,14.20
2022-10-06T22:19:10.668Z,14.20
2022-10-06T22:21:40.097Z,14.20
2022-10-06T22:24:12.358Z,14.20
2022-10-06T22:26:41.452Z,14.20
2022-10-06T22:29:11.375Z,14.10
2022-10-06T22:31:41.515Z,14.10
2022-10-06T22:34:11.093Z,14.10
2022-10-06T22:36:37.994Z,14.10
2022-10-06T22:39:05.100Z,14.10
2022-10-06T22:41:32.026Z,14.10
2022-10-06T22:43:59.712Z,14.00
2022-10-06T22:46:29.321Z,14.10
2022-10-06T22:48:56.769Z,14.10
2022-10-06T22:51:24.212Z,14.00
2022-10-06T22:53:59.715Z,14.10
2022-10-06T22:56:28.495Z,14.00
2022-10-06T22:58:57.055Z,14.00
2022-10-06T23:02:04.692Z,14.00
2022-10-06T23:04:31.607Z,14.00
2022-10-06T23:06:58.435Z,14.00
2022-10-06T23:09:25.331Z,14.00
2022-10-06T23:11:52.149Z,13.90
2022-10-06T23:14:19.156Z,13.90
2022-10-06T23:16:46.097Z,13.90
2022-10-06T23:19:13.146Z,13.80
2022-10-06T23:21:40.405Z,13.80
2022-10-06T23:24:08.221Z,13.80
2022-10-06T23:26:35.161Z,13.80
2022-10-06T23:29:02.143Z,13.80
2022-10-06T23:31:29.974Z,13.80
2022-10-06T23:33:56.930Z,13.80
2022-10-06T23:36:23.822Z,13.80
2022-10-06T23:38:50.726Z,13.80
2022-10-06T23:41:17.900Z,13.80
2022-10-06T23:43:45.143Z,13.80
2022-10-06T23:46:12.519Z,13.80
2022-10-06T23:48:39.587Z,13.80
2022-10-06T23:51:08.702Z,13.80
2022-10-06T23:53:36.288Z,13.80
2022-10-06T23:56:04.215Z,13.80
2022-10-06T23:58:31.122Z,13.80
